Baker City Municipal Airport
KBKE : now visible

Airfield :











YOU CAN JOIN US ON...

 
LOGIN :

Register | Disclaimer

   EN    FR    IT 

 









Legend :    VFR   Marginal VFR   IFR   Intensive IFR   Very Intensive IFR
Visi :
Ceiling :
>= 8 km
>= 3000ft
5 to 8 km
1000 to 3000 ft
1500m to 5 km
500 to 1000 ft
800 to 1500m
200 to 500 ft
< 800m
< 200 ft
Symbols :   Thunderstorms  Fog  Heavy snow  Heavy precipitations  Wind > 20 kt






- Airport Elevation : 3373 ft


KBKE - Baker City Municipal

CURRENT METAR :
  • 072053Z AUTO 03006KT 10SM CLR 16/M01 A3007 RMK AO2 SLP188 T01611011 58006

EXPIRED METARs :
  • 071953Z AUTO VRB03KT 10SM CLR 14/M01 A3009 RMK AO2 SLP194 T01441006
  • 071853Z AUTO 00000KT 10SM CLR 13/M01 A3009 RMK AO2 SLP194 T01281011

TAF KBKE
Valid from the 07 at 18:00 until the 08 at 18:00 UTC


071720Z 0718/0818 VRB03KT P6SM SCT250
FM072200 34009KT P6SM FEW250
FM080300 23004KT P6SM SKC



MET'MAP, your aeronautical weather chart ! - Copyright ORBIFLY December 2007 - Disclaimer

ORBIFLY MET'MAP TEAM :

Programming & Development : Alexandra Zaïnal
Concept & original design : Baudouin d'Aumeries
Assistance for programming : Marc-Olivier Méhu
Technical & hardware support : Manuel Goepfert

Contact : metmap@orbifly.com




SOURCES & CREDITS :

   NOAA       Earth
Advisory